createdAt,value
2019-03-12T00:00:36.335Z,22.04
2019-03-12T00:01:36.312Z,22.00
2019-03-12T00:02:36.304Z,22.05
2019-03-12T00:03:36.293Z,21.99
2019-03-12T00:04:36.278Z,22.04
2019-03-12T00:05:36.282Z,22.09
2019-03-12T00:06:36.255Z,22.00
2019-03-12T00:07:36.244Z,21.97
2019-03-12T00:08:36.233Z,21.93
2019-03-12T00:09:36.222Z,22.05
2019-03-12T00:10:36.225Z,22.08
2019-03-12T00:11:36.200Z,22.07
2019-03-12T00:12:36.189Z,22.08
2019-03-12T00:13:36.179Z,22.02
2019-03-12T00:14:36.176Z,22.04
2019-03-12T00:15:36.184Z,22.02
2019-03-12T00:16:36.144Z,22.02
2019-03-12T00:17:36.134Z,21.97
2019-03-12T00:18:36.121Z,22.00
2019-03-12T00:19:36.110Z,21.99
2019-03-12T00:20:36.106Z,22.02
2019-03-12T00:21:36.098Z,22.00
2019-03-12T00:22:36.076Z,22.05
2019-03-12T00:23:36.064Z,22.04
2019-03-12T00:24:36.053Z,21.89
2019-03-12T00:25:36.043Z,21.96
2019-03-12T00:26:36.045Z,22.00
2019-03-12T00:27:36.019Z,22.00
2019-03-12T00:28:36.015Z,21.99
2019-03-12T00:29:35.997Z,22.04
2019-03-12T00:30:35.987Z,21.97
2019-03-12T00:31:35.989Z,21.99
2019-03-12T00:32:35.967Z,22.04
2019-03-12T00:33:35.952Z,22.02
2019-03-12T00:34:35.941Z,22.05
2019-03-12T00:35:35.930Z,22.08
2019-03-12T00:36:35.932Z,21.96
2019-03-12T00:37:35.908Z,22.05
2019-03-12T00:38:35.896Z,21.96
2019-03-12T00:39:35.887Z,21.97
2019-03-12T00:40:35.873Z,21.97
2019-03-12T00:41:35.875Z,22.00
2019-03-12T00:42:35.853Z,22.00
2019-03-12T00:43:35.855Z,22.00
2019-03-12T00:44:35.830Z,21.94
2019-03-12T00:45:35.822Z,22.02
2019-03-12T00:46:35.817Z,21.97
2019-03-12T00:47:35.796Z,21.97
2019-03-12T00:48:35.787Z,21.94
2019-03-12T00:49:35.867Z,21.99
2019-03-12T00:50:35.761Z,21.97
2019-03-12T00:51:35.766Z,21.90
2019-03-12T00:52:35.738Z,21.94
2019-03-12T00:53:35.727Z,21.99
2019-03-12T00:54:35.715Z,22.04
2019-03-12T00:55:35.704Z,22.00
2019-03-12T00:56:35.723Z,22.00
2019-03-12T00:57:35.683Z,21.96
2019-03-12T00:58:35.670Z,21.94
2019-03-12T00:59:35.659Z,21.99
2019-03-12T01:00:35.649Z,21.94
2019-03-12T01:01:35.649Z,21.93
2019-03-12T01:02:35.625Z,21.94
2019-03-12T01:03:35.652Z,21.96
2019-03-12T01:04:35.603Z,21.89
2019-03-12T01:05:35.604Z,21.97
2019-03-12T01:06:35.607Z,21.86
2019-03-12T01:07:35.574Z,21.92
2019-03-12T01:08:35.558Z,21.92
2019-03-12T01:09:35.546Z,21.93
2019-03-12T01:10:35.536Z,21.92
2019-03-12T01:11:35.535Z,21.90
2019-03-12T01:12:35.518Z,21.96
2019-03-12T01:13:35.504Z,21.99
2019-03-12T01:14:35.490Z,22.04
2019-03-12T01:15:35.485Z,21.90
2019-03-12T01:16:35.480Z,21.92
2019-03-12T01:17:42.467Z,21.86
2019-03-12T01:18:35.446Z,21.89
2019-03-12T01:19:35.447Z,21.97
2019-03-12T01:20:35.422Z,21.92
2019-03-12T01:21:35.425Z,21.93
2019-03-12T01:22:35.400Z,21.96
2019-03-12T01:23:35.388Z,21.94
2019-03-12T01:24:35.378Z,21.92
2019-03-12T01:25:35.369Z,21.90
2019-03-12T01:26:35.366Z,21.90
2019-03-12T01:27:35.344Z,21.90
2019-03-12T01:28:35.333Z,21.90
2019-03-12T01:29:35.343Z,21.90
2019-03-12T01:30:35.312Z,21.89
2019-03-12T01:31:35.311Z,21.90
2019-03-12T01:32:35.287Z,21.94
2019-03-12T01:33:35.285Z,21.94
2019-03-12T01:34:35.269Z,21.89
2019-03-12T01:35:35.259Z,21.93
2019-03-12T01:36:35.255Z,21.96
2019-03-12T01:37:35.231Z,21.90
2019-03-12T01:38:35.222Z,21.94
2019-03-12T01:39:35.211Z,21.93
2019-03-12T01:40:35.201Z,21.83
2019-03-12T01:41:35.231Z,21.96
2019-03-12T01:42:35.192Z,21.96
2019-03-12T01:43:35.166Z,22.00
2019-03-12T01:44:35.153Z,21.94
2019-03-12T01:45:35.142Z,21.97
2019-03-12T01:46:35.130Z,21.93
2019-03-12T01:47:35.139Z,21.90
2019-03-12T01:48:35.115Z,21.94
2019-03-12T01:49:35.102Z,21.93
2019-03-12T01:50:35.089Z,21.94
2019-03-12T01:51:35.079Z,21.96
2019-03-12T01:52:35.090Z,21.92
2019-03-12T01:53:35.054Z,21.97
2019-03-12T01:54:35.040Z,21.90
2019-03-12T01:55:35.033Z,21.83
2019-03-12T01:56:35.019Z,21.82
2019-03-12T01:57:35.019Z,21.85
2019-03-12T01:58:34.997Z,21.89
2019-03-12T01:59:34.985Z,21.89
2019-03-12T02:00:34.977Z,21.92
2019-03-12T02:01:34.962Z,21.94
2019-03-12T02:02:34.962Z,21.97
2019-03-12T02:03:34.945Z,21.85
2019-03-12T02:04:34.928Z,21.89
2019-03-12T02:05:34.928Z,21.96
2019-03-12T02:06:34.906Z,21.93
2019-03-12T02:07:34.908Z,21.92
2019-03-12T02:08:34.890Z,21.94
2019-03-12T02:09:34.873Z,21.90
2019-03-12T02:10:34.862Z,22.04
2019-03-12T02:11:34.854Z,21.86
2019-03-12T02:12:34.857Z,21.93
2019-03-12T02:13:34.827Z,21.86
2019-03-12T02:14:34.820Z,21.93
2019-03-12T02:15:34.808Z,21.94
2019-03-12T02:16:35.117Z,21.94
2019-03-12T02:17:34.797Z,21.94
2019-03-12T02:18:34.777Z,21.92
2019-03-12T02:19:34.760Z,21.96
2019-03-12T02:20:34.749Z,21.96
2019-03-12T02:21:34.738Z,21.96
2019-03-12T02:22:34.739Z,21.92
2019-03-12T02:23:34.715Z,21.86
2019-03-12T02:24:34.707Z,21.90
2019-03-12T02:25:34.700Z,21.93
2019-03-12T02:26:34.738Z,21.90
2019-03-12T02:27:34.684Z,21.94
2019-03-12T02:28:34.679Z,21.96
2019-03-12T02:29:34.652Z,21.86
2019-03-12T02:30:34.641Z,21.92
2019-03-12T02:31:34.626Z,21.96
2019-03-12T02:32:34.628Z,21.96
2019-03-12T02:33:34.615Z,21.97
2019-03-12T02:34:34.598Z,21.90
2019-03-12T02:35:34.591Z,21.90
2019-03-12T02:36:34.580Z,21.90
2019-03-12T02:37:34.573Z,22.00
2019-03-12T02:38:34.653Z,21.94
2019-03-12T02:39:34.537Z,21.94
2019-03-12T02:40:34.527Z,21.93
2019-03-12T02:41:34.526Z,21.96
2019-03-12T02:42:34.518Z,21.96
2019-03-12T02:43:34.492Z,21.94
2019-03-12T02:44:34.483Z,22.02
2019-03-12T02:45:34.471Z,21.90
2019-03-12T02:46:34.460Z,21.96
2019-03-12T02:47:34.461Z,21.93
2019-03-12T02:48:34.441Z,22.00
2019-03-12T02:49:34.434Z,21.99
2019-03-12T02:50:34.414Z,21.90
2019-03-12T02:51:34.421Z,21.93
2019-03-12T02:52:34.404Z,21.90
2019-03-12T02:53:34.394Z,21.89
2019-03-12T02:54:34.375Z,21.96
2019-03-12T02:55:34.362Z,21.89
2019-03-12T02:56:34.349Z,21.86
2019-03-12T02:57:34.352Z,21.93
2019-03-12T02:58:34.361Z,21.89
2019-03-12T02:59:34.312Z,21.92
2019-03-12T03:00:34.302Z,21.90
2019-03-12T03:01:34.380Z,21.97
2019-03-12T03:02:34.319Z,21.94
2019-03-12T03:03:34.269Z,22.04
2019-03-12T03:04:34.271Z,21.85
2019-03-12T03:05:34.246Z,21.83
2019-03-12T03:06:34.235Z,21.99
2019-03-12T03:07:34.235Z,21.93
2019-03-12T03:08:34.213Z,21.94
2019-03-12T03:09:34.202Z,21.89
2019-03-12T03:10:34.195Z,21.93
2019-03-12T03:11:34.178Z,21.94
2019-03-12T03:12:34.190Z,22.02
2019-03-12T03:13:34.163Z,21.93
2019-03-12T03:14:34.163Z,21.93
2019-03-12T03:15:34.221Z,21.89
2019-03-12T03:16:34.123Z,21.90
2019-03-12T03:17:34.110Z,21.93
2019-03-12T03:18:34.113Z,21.86
2019-03-12T03:19:34.088Z,21.93
2019-03-12T03:20:34.083Z,21.94
2019-03-12T03:21:34.072Z,21.93
2019-03-12T03:22:34.056Z,21.92
2019-03-12T03:23:34.066Z,21.94
2019-03-12T03:24:34.043Z,21.93
2019-03-12T03:25:34.032Z,21.92
2019-03-12T03:26:34.009Z,21.93
2019-03-12T03:27:34.020Z,21.92
2019-03-12T03:28:34.002Z,21.89
2019-03-12T03:29:33.977Z,21.86
2019-03-12T03:30:34.015Z,21.96
2019-03-12T03:31:33.960Z,21.93
2019-03-12T03:32:33.946Z,21.97
2019-03-12T03:33:33.967Z,21.89
2019-03-12T03:34:33.921Z,21.97
2019-03-12T03:35:33.908Z,21.92
2019-03-12T03:36:33.904Z,21.90
2019-03-12T03:37:33.914Z,22.00
2019-03-12T03:38:33.887Z,21.85
2019-03-12T03:39:33.882Z,21.92
2019-03-12T03:40:33.853Z,21.89
2019-03-12T03:41:34.994Z,21.96
2019-03-12T03:42:33.847Z,21.94
2019-03-12T03:43:33.861Z,21.89
2019-03-12T03:44:33.808Z,21.97
2019-03-12T03:45:33.817Z,21.90
2019-03-12T03:46:33.786Z,21.89
2019-03-12T03:47:33.774Z,21.92
2019-03-12T03:48:33.775Z,21.93
2019-03-12T03:49:33.752Z,21.99
2019-03-12T03:50:33.743Z,21.83
2019-03-12T03:51:33.735Z,21.82
2019-03-12T03:52:33.719Z,21.94
2019-03-12T03:53:33.723Z,21.86
2019-03-12T03:54:33.695Z,21.90
2019-03-12T03:55:33.684Z,21.86
2019-03-12T03:56:33.674Z,21.94
2019-03-12T03:57:33.663Z,21.94
2019-03-12T03:58:33.671Z,21.94
2019-03-12T03:59:33.654Z,21.85
2019-03-12T04:00:33.628Z,21.89
2019-03-12T04:01:33.620Z,21.90
2019-03-12T04:02:33.605Z,21.94
2019-03-12T04:03:33.609Z,21.93
2019-03-12T04:04:33.582Z,21.86
2019-03-12T04:05:33.569Z,21.96
2019-03-12T04:06:34.434Z,21.97
2019-03-12T04:07:33.548Z,21.83
2019-03-12T04:08:33.551Z,21.90
2019-03-12T04:09:33.526Z,21.85
2019-03-12T04:10:33.515Z,21.86
2019-03-12T04:11:33.506Z,21.93
2019-03-12T04:12:33.501Z,21.85
2019-03-12T04:13:33.494Z,21.94
2019-03-12T04:14:33.473Z,21.89
2019-03-12T04:15:33.461Z,21.93
2019-03-12T04:16:33.449Z,21.90
2019-03-12T04:17:33.439Z,21.92
2019-03-12T04:18:33.437Z,21.99
2019-03-12T04:19:33.413Z,21.86
2019-03-12T04:20:33.403Z,21.90
2019-03-12T04:21:33.396Z,21.93
2019-03-12T04:22:33.400Z,21.94
2019-03-12T04:23:33.385Z,21.86
2019-03-12T04:24:33.357Z,21.90
2019-03-12T04:25:33.370Z,21.80
2019-03-12T04:26:33.336Z,21.93
2019-03-12T04:27:33.325Z,21.93
2019-03-12T04:28:33.323Z,21.82
2019-03-12T04:29:33.300Z,21.96
2019-03-12T04:30:33.289Z,21.99
2019-03-12T04:31:33.279Z,21.94
2019-03-12T04:32:33.269Z,21.86
2019-03-12T04:33:33.296Z,21.93
2019-03-12T04:34:33.244Z,21.85
2019-03-12T04:35:33.244Z,21.97
2019-03-12T04:36:33.221Z,21.86
2019-03-12T04:37:33.210Z,21.99
2019-03-12T04:38:33.212Z,21.92
2019-03-12T04:39:33.190Z,21.97
2019-03-12T04:40:33.180Z,22.02
2019-03-12T04:41:33.165Z,21.86
2019-03-12T04:42:33.155Z,21.92
2019-03-12T04:43:33.143Z,21.90
2019-03-12T04:44:33.143Z,21.94
2019-03-12T04:45:33.135Z,21.86
2019-03-12T04:46:33.110Z,21.94
2019-03-12T04:47:33.097Z,21.94
2019-03-12T04:48:33.086Z,21.92
2019-03-12T04:49:33.088Z,21.89
2019-03-12T04:50:33.065Z,21.90
2019-03-12T04:51:33.054Z,21.89
2019-03-12T04:52:33.044Z,21.92
2019-03-12T04:53:33.030Z,21.92
2019-03-12T04:54:33.030Z,21.90
2019-03-12T04:55:33.009Z,21.96
2019-03-12T04:56:32.998Z,21.86
2019-03-12T04:57:32.986Z,21.92
2019-03-12T04:58:32.987Z,21.92
2019-03-12T04:59:32.977Z,21.89
2019-03-12T05:00:32.954Z,21.90
2019-03-12T05:01:32.943Z,21.90
2019-03-12T05:02:32.948Z,21.96
2019-03-12T05:03:32.918Z,21.85
2019-03-12T05:04:32.918Z,21.86
2019-03-12T05:05:32.896Z,21.85
2019-03-12T05:06:32.884Z,21.92
2019-03-12T05:07:32.881Z,21.96
2019-03-12T05:08:32.907Z,21.89
2019-03-12T05:09:32.864Z,22.00
2019-03-12T05:10:32.905Z,21.92
2019-03-12T05:11:32.828Z,21.92
2019-03-12T05:12:32.816Z,21.96
2019-03-12T05:13:32.868Z,21.90
2019-03-12T05:14:32.807Z,21.89
2019-03-12T05:15:32.783Z,21.85
2019-03-12T05:16:32.791Z,21.94
2019-03-12T05:17:32.760Z,22.02
2019-03-12T05:18:32.750Z,21.92
2019-03-12T05:19:32.803Z,21.92
2019-03-12T05:20:32.727Z,21.92
2019-03-12T05:21:32.738Z,21.86
2019-03-12T05:22:32.705Z,21.90
2019-03-12T05:23:32.693Z,21.92
2019-03-12T05:24:32.706Z,21.92
2019-03-12T05:25:32.671Z,21.89
2019-03-12T05:26:32.660Z,21.94
2019-03-12T05:27:32.647Z,21.96
2019-03-12T05:28:32.637Z,22.00
2019-03-12T05:29:32.638Z,21.96
2019-03-12T05:30:32.614Z,21.93
2019-03-12T05:31:32.604Z,21.93
2019-03-12T05:32:32.591Z,21.97
2019-03-12T05:33:32.617Z,21.99
2019-03-12T05:34:32.584Z,21.89
2019-03-12T05:35:32.560Z,21.92
2019-03-12T05:36:32.575Z,21.94
2019-03-12T05:37:32.540Z,21.92
2019-03-12T05:38:32.526Z,22.00
2019-03-12T05:39:32.524Z,21.92
2019-03-12T05:40:32.503Z,21.93
2019-03-12T05:41:32.510Z,21.90
2019-03-12T05:42:32.479Z,21.89
2019-03-12T05:43:32.468Z,21.93
2019-03-12T05:44:32.489Z,22.04
2019-03-12T05:45:32.445Z,21.92
2019-03-12T05:46:32.437Z,22.00
2019-03-12T05:47:32.427Z,22.08
2019-03-12T05:48:32.412Z,21.90
2019-03-12T05:49:32.415Z,22.04
2019-03-12T05:50:32.389Z,22.04
2019-03-12T05:51:32.379Z,21.97
2019-03-12T05:52:32.367Z,21.92
2019-03-12T05:53:32.355Z,22.00
2019-03-12T05:54:32.374Z,21.89
2019-03-12T05:55:32.333Z,21.92
2019-03-12T05:56:32.327Z,21.86
2019-03-12T05:57:32.312Z,21.92
2019-03-12T05:58:32.300Z,21.99
2019-03-12T05:59:32.310Z,21.97
2019-03-12T06:00:32.277Z,21.93
2019-03-12T06:01:32.267Z,21.86
2019-03-12T06:02:32.255Z,21.93
2019-03-12T06:03:32.251Z,22.05
2019-03-12T06:04:32.402Z,21.94
2019-03-12T06:05:32.222Z,21.96
2019-03-12T06:06:32.211Z,21.92
2019-03-12T06:07:32.219Z,22.02
2019-03-12T06:08:32.188Z,21.93
2019-03-12T06:09:32.179Z,21.99
2019-03-12T06:10:32.179Z,21.86
2019-03-12T06:11:32.156Z,21.96
2019-03-12T06:12:32.144Z,21.92
2019-03-12T06:13:32.131Z,21.93
2019-03-12T06:14:32.120Z,21.97
2019-03-12T06:15:32.119Z,21.96
2019-03-12T06:16:32.101Z,22.00
2019-03-12T06:17:32.086Z,21.89
2019-03-12T06:18:32.079Z,21.96
2019-03-12T06:19:32.119Z,21.90
2019-03-12T06:20:32.078Z,21.90
2019-03-12T06:21:32.042Z,21.90
2019-03-12T06:22:32.030Z,21.89
2019-03-12T06:23:32.019Z,21.96
2019-03-12T06:24:32.010Z,22.04
2019-03-12T06:25:32.008Z,21.92
2019-03-12T06:26:31.986Z,21.92
2019-03-12T06:27:31.989Z,21.92
2019-03-12T06:28:31.964Z,21.89
2019-03-12T06:29:31.952Z,21.93
2019-03-12T06:30:31.967Z,22.02
2019-03-12T06:31:31.941Z,21.97
2019-03-12T06:32:31.918Z,21.89
2019-03-12T06:33:31.908Z,21.92
2019-03-12T06:34:31.894Z,22.00
2019-03-12T06:35:31.894Z,21.90
2019-03-12T06:36:31.872Z,22.05
2019-03-12T06:37:31.864Z,21.90
2019-03-12T06:38:31.849Z,21.92
2019-03-12T06:39:31.839Z,22.00
2019-03-12T06:40:31.839Z,21.94
2019-03-12T06:41:31.816Z,21.93
2019-03-12T06:42:31.805Z,21.97
2019-03-12T06:43:31.816Z,21.99
2019-03-12T06:44:31.781Z,21.90
2019-03-12T06:45:31.783Z,21.97
2019-03-12T06:46:31.765Z,21.90
2019-03-12T06:47:31.748Z,22.04
2019-03-12T06:48:31.736Z,21.93
2019-03-12T06:49:31.724Z,22.00
2019-03-12T06:50:31.727Z,22.02
2019-03-12T06:51:31.703Z,21.86
2019-03-12T06:52:31.694Z,22.00
2019-03-12T06:53:31.701Z,21.92
2019-03-12T06:54:31.672Z,21.94
2019-03-12T06:55:31.669Z,21.93
2019-03-12T06:56:31.654Z,22.05
2019-03-12T06:57:31.635Z,21.93
2019-03-12T06:58:31.628Z,22.04
2019-03-12T06:59:31.611Z,22.04
2019-03-12T07:00:31.618Z,22.04
2019-03-12T07:01:31.592Z,22.00
2019-03-12T07:02:31.581Z,22.07
2019-03-12T07:03:31.569Z,21.92
2019-03-12T07:04:31.556Z,21.99
2019-03-12T07:05:31.571Z,22.02
2019-03-12T07:06:31.543Z,22.05
2019-03-12T07:07:31.522Z,22.02
2019-03-12T07:08:31.511Z,22.02
2019-03-12T07:09:31.503Z,22.04
2019-03-12T07:10:31.515Z,22.05
2019-03-12T07:11:31.477Z,21.99
2019-03-12T07:12:31.466Z,22.05
2019-03-12T07:13:32.475Z,22.08
2019-03-12T07:14:31.442Z,22.05
2019-03-12T07:15:31.443Z,22.07
2019-03-12T07:16:31.426Z,22.12
2019-03-12T07:17:31.417Z,22.04
2019-03-12T07:18:31.399Z,22.04
2019-03-12T07:19:31.393Z,22.02
2019-03-12T07:20:31.423Z,22.04
2019-03-12T07:21:31.370Z,22.07
2019-03-12T07:22:31.354Z,22.04
2019-03-12T07:23:31.342Z,22.07
2019-03-12T07:24:31.330Z,22.05
2019-03-12T07:25:31.332Z,22.07
2019-03-12T07:26:31.308Z,22.12
2019-03-12T07:27:31.297Z,22.07
2019-03-12T07:28:31.286Z,22.11
2019-03-12T07:29:31.364Z,22.08
2019-03-12T07:30:31.299Z,22.05
2019-03-12T07:31:32.121Z,22.05
2019-03-12T07:32:31.304Z,22.09
2019-03-12T07:33:32.010Z,22.15
2019-03-12T07:34:36.527Z,22.07
2019-03-12T07:35:32.304Z,22.07
2019-03-12T07:36:31.226Z,22.07
2019-03-12T07:37:31.209Z,22.11
2019-03-12T07:38:31.188Z,22.14
2019-03-12T07:39:31.208Z,22.12
2019-03-12T07:40:31.176Z,22.12
2019-03-12T07:41:32.682Z,22.16
2019-03-12T07:42:31.167Z,22.14
2019-03-12T07:43:31.396Z,22.15
2019-03-12T07:44:31.129Z,22.15
2019-03-12T07:45:31.130Z,22.12
2019-03-12T07:46:31.133Z,22.14
2019-03-12T07:47:35.622Z,22.11
2019-03-12T07:48:32.083Z,22.18
2019-03-12T07:49:31.081Z,22.16
2019-03-12T07:50:31.108Z,22.14
2019-03-12T07:51:31.048Z,22.16
2019-03-12T07:52:31.029Z,22.14
2019-03-12T07:53:31.023Z,22.16
2019-03-12T07:54:31.006Z,22.12
2019-03-12T07:55:30.988Z,22.22
2019-03-12T07:56:31.035Z,22.16
2019-03-12T07:57:30.986Z,22.20
2019-03-12T07:58:35.768Z,22.23
2019-03-12T07:59:31.960Z,22.20
2019-03-12T08:00:30.950Z,22.22
2019-03-12T08:01:30.933Z,22.22
2019-03-12T08:02:30.907Z,22.22
2019-03-12T08:03:30.910Z,22.23
2019-03-12T08:04:30.902Z,22.24
2019-03-12T08:05:30.915Z,22.20
2019-03-12T08:06:30.900Z,22.20
2019-03-12T08:07:30.851Z,22.15
2019-03-12T08:08:30.839Z,22.23
2019-03-12T08:09:30.826Z,22.20
2019-03-12T08:10:33.608Z,22.23
2019-03-12T08:11:31.034Z,22.15
2019-03-12T08:12:30.812Z,22.22
2019-03-12T08:13:30.784Z,22.20
2019-03-12T08:14:30.788Z,22.15
2019-03-12T08:15:30.779Z,22.18
2019-03-12T08:16:30.772Z,22.20
2019-03-12T08:17:30.757Z,22.20
2019-03-12T08:18:30.727Z,22.22
2019-03-12T08:19:30.734Z,22.20
2019-03-12T08:20:30.713Z,22.22
2019-03-12T08:21:31.014Z,22.22
2019-03-12T08:22:30.682Z,22.16
2019-03-12T08:23:30.692Z,22.15
2019-03-12T08:24:30.675Z,22.20
2019-03-12T08:25:30.704Z,22.22
2019-03-12T08:26:30.648Z,22.20
2019-03-12T08:27:30.635Z,22.23
2019-03-12T08:28:30.634Z,22.22
2019-03-12T08:29:30.608Z,22.20
2019-03-12T08:30:30.610Z,22.20
2019-03-12T08:31:31.017Z,22.16
2019-03-12T08:32:30.666Z,22.18
2019-03-12T08:33:30.625Z,22.22
2019-03-12T08:34:30.549Z,22.20
2019-03-12T08:35:30.535Z,22.14
2019-03-12T08:36:30.535Z,22.22
2019-03-12T08:37:30.510Z,22.18
2019-03-12T08:38:30.519Z,22.18
2019-03-12T08:39:30.541Z,22.24
2019-03-12T08:40:30.527Z,22.16
2019-03-12T08:41:30.482Z,22.18
2019-03-12T08:42:30.488Z,22.24
2019-03-12T08:43:30.446Z,22.26
2019-03-12T08:44:30.477Z,22.23
2019-03-12T08:45:30.427Z,22.16
2019-03-12T08:46:30.434Z,22.22
2019-03-12T08:47:30.420Z,22.18
2019-03-12T08:48:30.393Z,22.22
2019-03-12T08:49:30.381Z,22.22
2019-03-12T08:50:30.364Z,22.20
2019-03-12T08:51:30.441Z,22.16
2019-03-12T08:52:30.992Z,22.18
2019-03-12T08:53:30.330Z,22.20
2019-03-12T08:54:30.344Z,22.24
2019-03-12T08:55:30.347Z,22.18
2019-03-12T08:56:32.682Z,22.22
2019-03-12T08:57:30.289Z,22.20
2019-03-12T08:58:30.291Z,22.18
2019-03-12T08:59:30.306Z,22.23
2019-03-12T09:00:30.263Z,22.15
2019-03-12T09:01:30.295Z,22.15
2019-03-12T09:02:30.289Z,22.24
2019-03-12T09:03:30.273Z,22.24
2019-03-12T09:04:30.222Z,22.18
2019-03-12T09:05:30.203Z,22.27
2019-03-12T09:06:30.210Z,22.23
2019-03-12T09:07:30.524Z,22.27
2019-03-12T09:08:30.235Z,22.15
2019-03-12T09:09:30.153Z,22.23
2019-03-12T09:10:30.149Z,22.18
2019-03-12T09:11:30.154Z,22.22
2019-03-12T09:12:30.173Z,22.18
2019-03-12T09:13:30.106Z,22.26
2019-03-12T09:14:30.104Z,22.29
2019-03-12T09:15:30.116Z,22.18
2019-03-12T09:16:30.082Z,22.15
2019-03-12T09:17:30.229Z,22.26
2019-03-12T09:18:30.066Z,22.18
2019-03-12T09:19:30.058Z,22.24
2019-03-12T09:20:30.033Z,22.22
2019-03-12T09:21:30.019Z,22.18
2019-03-12T09:22:30.044Z,22.20
2019-03-12T09:23:30.015Z,22.24
2019-03-12T09:24:30.068Z,22.22
2019-03-12T09:25:29.982Z,22.22
2019-03-12T09:26:29.989Z,22.23
2019-03-12T09:27:30.044Z,22.20
2019-03-12T09:28:29.937Z,22.27
2019-03-12T09:29:29.924Z,22.29
2019-03-12T09:30:29.929Z,22.31
2019-03-12T09:31:29.903Z,22.16
2019-03-12T09:32:29.913Z,22.26
2019-03-12T09:33:29.955Z,22.23
2019-03-12T09:34:29.889Z,22.22
2019-03-12T09:35:29.882Z,22.24
2019-03-12T09:36:29.853Z,22.29
2019-03-12T09:37:29.875Z,22.24
2019-03-12T09:38:29.841Z,22.30
2019-03-12T09:39:29.812Z,22.22
2019-03-12T09:40:29.848Z,22.31
2019-03-12T09:41:29.791Z,22.16
2019-03-12T09:42:29.801Z,22.20
2019-03-12T09:43:29.767Z,22.24
2019-03-12T09:44:29.816Z,22.29
2019-03-12T09:45:29.752Z,22.18
2019-03-12T09:46:29.766Z,22.20
2019-03-12T09:47:29.775Z,22.26
2019-03-12T09:48:29.712Z,22.26
2019-03-12T09:49:29.707Z,22.29
2019-03-12T09:50:29.696Z,22.34
2019-03-12T09:51:29.679Z,22.31
2019-03-12T09:52:29.717Z,22.29
2019-03-12T09:53:29.655Z,22.27
2019-03-12T09:54:29.644Z,22.31
2019-03-12T09:55:29.705Z,22.22
2019-03-12T09:56:29.636Z,22.20
2019-03-12T09:57:29.642Z,22.24
2019-03-12T09:58:29.625Z,22.24
2019-03-12T09:59:29.707Z,22.22
2019-03-12T10:00:30.636Z,22.23
2019-03-12T10:01:29.606Z,22.34
2019-03-12T10:02:29.586Z,22.23
2019-03-12T10:03:29.598Z,22.26
2019-03-12T10:04:29.652Z,22.26
2019-03-12T10:05:29.538Z,22.24
2019-03-12T10:06:29.516Z,22.23
2019-03-12T10:07:29.535Z,22.30
2019-03-12T10:08:29.512Z,22.33
2019-03-12T10:09:29.596Z,22.24
2019-03-12T10:10:29.508Z,22.26
2019-03-12T10:11:29.555Z,22.33
2019-03-12T10:12:29.649Z,22.34
2019-03-12T10:13:29.567Z,22.33
2019-03-12T10:14:29.428Z,22.34
2019-03-12T10:15:29.527Z,22.30
2019-03-12T10:16:29.429Z,22.36
2019-03-12T10:17:29.442Z,22.38
2019-03-12T10:18:29.398Z,22.39
2019-03-12T10:19:29.383Z,22.29
2019-03-12T10:20:29.431Z,22.36
2019-03-12T10:21:29.395Z,22.36
2019-03-12T10:22:29.575Z,22.39
2019-03-12T10:23:29.344Z,22.38
2019-03-12T10:24:29.359Z,22.33
2019-03-12T10:25:29.334Z,22.33
2019-03-12T10:26:29.338Z,22.34
2019-03-12T10:27:29.302Z,22.38
2019-03-12T10:28:29.391Z,22.36
2019-03-12T10:29:29.291Z,22.27
2019-03-12T10:30:29.371Z,22.34
2019-03-12T10:31:29.284Z,22.33
2019-03-12T10:32:29.289Z,22.44
2019-03-12T10:33:29.278Z,22.38
2019-03-12T10:34:30.180Z,22.33
2019-03-12T10:35:29.224Z,22.38
2019-03-12T10:36:31.036Z,22.26
2019-03-12T10:37:29.162Z,22.34
2019-03-12T10:38:29.225Z,22.38
2019-03-12T10:39:29.249Z,22.39
2019-03-12T10:40:29.200Z,22.38
2019-03-12T10:41:29.197Z,22.39
2019-03-12T10:42:29.108Z,22.38
2019-03-12T10:43:29.205Z,22.39
2019-03-12T10:44:29.171Z,22.46
2019-03-12T10:45:29.120Z,22.46
2019-03-12T10:46:29.105Z,22.42
2019-03-12T10:47:29.056Z,22.36
2019-03-12T10:48:29.112Z,22.39
2019-03-12T10:49:37.311Z,22.42
2019-03-12T10:50:30.062Z,22.41
2019-03-12T10:51:29.041Z,22.45
2019-03-12T10:52:29.009Z,22.38
2019-03-12T10:53:29.013Z,22.42
2019-03-12T10:54:29.019Z,22.39
2019-03-12T10:55:29.082Z,22.34
2019-03-12T10:56:29.012Z,22.41
2019-03-12T10:57:28.953Z,22.34
2019-03-12T10:58:28.970Z,22.42
2019-03-12T10:59:28.939Z,22.39
2019-03-12T11:00:28.937Z,22.42
2019-03-12T11:01:28.894Z,22.42
2019-03-12T11:02:28.904Z,22.46
2019-03-12T11:03:28.905Z,22.45
2019-03-12T11:04:28.894Z,22.42
2019-03-12T11:05:29.004Z,22.46
2019-03-12T11:06:29.014Z,22.36
2019-03-12T11:07:28.913Z,22.38
2019-03-12T11:08:28.959Z,22.41
2019-03-12T11:09:28.946Z,22.39
2019-03-12T11:10:28.861Z,22.41
2019-03-12T11:11:28.835Z,22.36
2019-03-12T11:12:28.777Z,22.45
2019-03-12T11:13:28.817Z,22.44
2019-03-12T11:14:28.818Z,22.49
2019-03-12T11:15:28.798Z,22.42
2019-03-12T11:16:28.810Z,22.44
2019-03-12T11:17:28.736Z,22.42
2019-03-12T11:18:28.815Z,22.42
2019-03-12T11:19:28.723Z,22.39
2019-03-12T11:20:28.726Z,22.42
2019-03-12T11:21:28.705Z,22.45
2019-03-12T11:22:28.735Z,22.38
2019-03-12T11:23:28.724Z,22.44
2019-03-12T11:24:28.656Z,22.45
2019-03-12T11:25:28.666Z,22.41
2019-03-12T11:26:28.640Z,22.44
2019-03-12T11:27:28.637Z,22.41
2019-03-12T11:28:28.678Z,22.42
2019-03-12T11:29:30.693Z,22.31
2019-03-12T11:30:28.593Z,22.42
2019-03-12T11:31:28.619Z,22.45
2019-03-12T11:32:28.674Z,22.38
2019-03-12T11:33:28.640Z,22.44
2019-03-12T11:34:28.685Z,22.42
2019-03-12T11:35:38.203Z,22.45
2019-03-12T11:36:29.533Z,22.36
2019-03-12T11:37:28.573Z,22.38
2019-03-12T11:38:28.569Z,22.44
2019-03-12T11:39:28.623Z,22.36
2019-03-12T11:40:32.061Z,22.39
2019-03-12T11:41:28.546Z,22.38
2019-03-12T11:42:28.490Z,22.44
2019-03-12T11:43:28.448Z,22.49
2019-03-12T11:44:28.448Z,22.52
2019-03-12T11:45:36.291Z,22.42
2019-03-12T11:46:36.791Z,22.39
2019-03-12T11:47:29.466Z,22.41
2019-03-12T11:48:28.409Z,22.36
2019-03-12T11:49:28.494Z,22.36
2019-03-12T11:50:28.373Z,22.46
2019-03-12T11:51:28.400Z,22.34
2019-03-12T11:52:28.341Z,22.41
2019-03-12T11:53:28.385Z,22.45
2019-03-12T11:54:28.608Z,22.41
2019-03-12T11:55:28.328Z,22.46
2019-03-12T11:56:28.369Z,22.45
2019-03-12T11:57:28.286Z,22.41
2019-03-12T11:58:28.314Z,22.38
2019-03-12T11:59:28.273Z,22.42
2019-03-12T12:00:28.606Z,22.39
2019-03-12T12:01:28.281Z,22.44
2019-03-12T12:02:28.258Z,22.51
2019-03-12T12:03:28.308Z,22.48
2019-03-12T12:04:28.226Z,22.44
2019-03-12T12:05:28.222Z,22.39
2019-03-12T12:06:28.458Z,22.48
2019-03-12T12:07:28.164Z,22.49
2019-03-12T12:08:28.201Z,22.44
2019-03-12T12:09:28.181Z,22.42
2019-03-12T12:10:28.181Z,22.41
2019-03-12T12:11:28.121Z,22.41
2019-03-12T12:12:28.214Z,22.39
2019-03-12T12:13:28.125Z,22.44
2019-03-12T12:14:28.161Z,22.44
2019-03-12T12:15:28.086Z,22.38
2019-03-12T12:16:28.090Z,22.42
2019-03-12T12:17:28.120Z,22.44
2019-03-12T12:18:28.081Z,22.46
2019-03-12T12:19:28.226Z,22.45
2019-03-12T12:20:30.114Z,22.42
2019-03-12T12:21:28.018Z,22.51
2019-03-12T12:22:27.996Z,22.51
2019-03-12T12:23:28.175Z,22.54
2019-03-12T12:24:27.994Z,22.52
2019-03-12T12:25:27.953Z,22.51
2019-03-12T12:26:27.943Z,22.49
2019-03-12T12:27:28.006Z,22.42
2019-03-12T12:28:27.920Z,22.44
2019-03-12T12:29:28.023Z,22.45
2019-03-12T12:30:27.920Z,22.51
2019-03-12T12:31:27.904Z,22.49
2019-03-12T12:32:27.969Z,22.44
2019-03-12T12:33:27.953Z,22.45
2019-03-12T12:34:28.075Z,22.45
2019-03-12T12:35:27.897Z,22.44
2019-03-12T12:36:27.889Z,22.46
2019-03-12T12:37:27.885Z,22.49
2019-03-12T12:38:27.965Z,22.52
2019-03-12T12:39:27.843Z,22.45
2019-03-12T12:40:28.042Z,22.48
2019-03-12T12:41:27.844Z,22.44
2019-03-12T12:42:27.784Z,22.52
2019-03-12T12:43:27.820Z,22.49
2019-03-12T12:44:27.950Z,22.41
2019-03-12T12:45:27.846Z,22.41
2019-03-12T12:46:27.795Z,22.44
2019-03-12T12:47:27.795Z,22.48
2019-03-12T12:48:27.795Z,22.48
2019-03-12T12:49:27.735Z,22.52
2019-03-12T12:50:27.751Z,22.48
2019-03-12T12:51:27.775Z,22.48
2019-03-12T12:52:27.695Z,22.51